sensor_id;sensor_type;location;lat;lon;timestamp;temperature;humidity
10788;DHT22;5446;50.826;4.380;2024-02-26T00:00:32;7.20;99.90
10788;DHT22;5446;50.826;4.380;2024-02-26T00:03:00;7.10;99.90
10788;DHT22;5446;50.826;4.380;2024-02-26T00:05:26;7.10;99.90
10788;DHT22;5446;50.826;4.380;2024-02-26T00:07:52;7.10;99.90
10788;DHT22;5446;50.826;4.380;2024-02-26T00:10:18;7.00;99.90
10788;DHT22;5446;50.826;4.380;2024-02-26T00:12:43;7.00;99.90
10788;DHT22;5446;50.826;4.380;2024-02-26T00:15:09;7.00;99.90
10788;DHT22;5446;50.826;4.380;2024-02-26T00:17:35;7.00;99.90
10788;DHT22;5446;50.826;4.380;2024-02-26T00:20:03;7.00;99.90
10788;DHT22;5446;50.826;4.380;2024-02-26T00:22:35;7.00;99.90
10788;DHT22;5446;50.826;4.380;2024-02-26T00:25:01;6.90;99.90
10788;DHT22;5446;50.826;4.380;2024-02-26T00:27:26;6.90;99.90
10788;DHT22;5446;50.826;4.380;2024-02-26T00:29:52;6.90;99.90
10788;DHT22;5446;50.826;4.380;2024-02-26T00:32:18;6.90;99.90
10788;DHT22;5446;50.826;4.380;2024-02-26T00:34:44;6.90;99.90
10788;DHT22;5446;50.826;4.380;2024-02-26T00:37:09;6.90;99.90
10788;DHT22;5446;50.826;4.380;2024-02-26T00:39:35;6.90;99.90
10788;DHT22;5446;50.826;4.380;2024-02-26T00:42:01;6.90;99.90
10788;DHT22;5446;50.826;4.380;2024-02-26T00:44:26;6.90;99.90
10788;DHT22;5446;50.826;4.380;2024-02-26T00:46:52;6.90;99.90
10788;DHT22;5446;50.826;4.380;2024-02-26T00:49:18;6.90;99.90
10788;DHT22;5446;50.826;4.380;2024-02-26T00:51:43;6.90;99.90
10788;DHT22;5446;50.826;4.380;2024-02-26T00:54:09;6.90;99.90
10788;DHT22;5446;50.826;4.380;2024-02-26T00:56:35;6.90;99.90
10788;DHT22;5446;50.826;4.380;2024-02-26T00:59:00;6.80;99.90
10788;DHT22;5446;50.826;4.380;2024-02-26T01:01:26;6.80;99.90
10788;DHT22;5446;50.826;4.380;2024-02-26T01:03:52;6.80;99.90
10788;DHT22;5446;50.826;4.380;2024-02-26T01:06:18;6.80;99.90
10788;DHT22;5446;50.826;4.380;2024-02-26T01:08:44;6.80;99.90
10788;DHT22;5446;50.826;4.380;2024-02-26T01:11:09;6.80;99.90
10788;DHT22;5446;50.826;4.380;2024-02-26T01:13:35;6.80;99.90
10788;DHT22;5446;50.826;4.380;2024-02-26T01:16:01;6.80;99.90
10788;DHT22;5446;50.826;4.380;2024-02-26T01:18:27;6.80;99.90
10788;DHT22;5446;50.826;4.380;2024-02-26T01:20:52;6.70;99.90
10788;DHT22;5446;50.826;4.380;2024-02-26T01:23:20;6.70;99.90
10788;DHT22;5446;50.826;4.380;2024-02-26T01:25:46;6.80;99.90
10788;DHT22;5446;50.826;4.380;2024-02-26T01:28:12;6.70;99.90
10788;DHT22;5446;50.826;4.380;2024-02-26T01:30:37;6.70;99.90
10788;DHT22;5446;50.826;4.380;2024-02-26T01:33:03;6.70;99.90
10788;DHT22;5446;50.826;4.380;2024-02-26T01:35:29;6.60;99.90
10788;DHT22;5446;50.826;4.380;2024-02-26T01:37:55;6.70;99.90
10788;DHT22;5446;50.826;4.380;2024-02-26T01:40:22;6.70;99.90
10788;DHT22;5446;50.826;4.380;2024-02-26T01:42:47;6.70;99.90
10788;DHT22;5446;50.826;4.380;2024-02-26T01:45:17;6.70;99.90
10788;DHT22;5446;50.826;4.380;2024-02-26T01:47:52;6.70;99.90
10788;DHT22;5446;50.826;4.380;2024-02-26T01:50:18;6.70;99.90
10788;DHT22;5446;50.826;4.380;2024-02-26T01:52:49;6.70;99.90
10788;DHT22;5446;50.826;4.380;2024-02-26T01:55:16;6.70;99.90
10788;DHT22;5446;50.826;4.380;2024-02-26T01:57:44;6.70;99.90
10788;DHT22;5446;50.826;4.380;2024-02-26T02:00:11;6.60;99.90
10788;DHT22;5446;50.826;4.380;2024-02-26T02:02:38;6.70;99.90
10788;DHT22;5446;50.826;4.380;2024-02-26T02:05:06;6.70;99.90
10788;DHT22;5446;50.826;4.380;2024-02-26T02:07:33;6.70;99.90
10788;DHT22;5446;50.826;4.380;2024-02-26T02:10:00;6.80;99.90
10788;DHT22;5446;50.826;4.380;2024-02-26T02:12:26;6.70;99.90
10788;DHT22;5446;50.826;4.380;2024-02-26T02:14:52;6.70;99.90
10788;DHT22;5446;50.826;4.380;2024-02-26T02:17:19;6.70;99.90
10788;DHT22;5446;50.826;4.380;2024-02-26T02:19:45;6.70;99.90
10788;DHT22;5446;50.826;4.380;2024-02-26T02:22:11;6.70;99.90
10788;DHT22;5446;50.826;4.380;2024-02-26T02:24:36;6.70;99.90
10788;DHT22;5446;50.826;4.380;2024-02-26T02:27:02;6.60;99.90
10788;DHT22;5446;50.826;4.380;2024-02-26T02:29:28;6.60;99.90
10788;DHT22;5446;50.826;4.380;2024-02-26T02:31:54;6.60;99.90
10788;DHT22;5446;50.826;4.380;2024-02-26T02:34:21;6.60;99.90
10788;DHT22;5446;50.826;4.380;2024-02-26T02:36:54;6.60;99.90
10788;DHT22;5446;50.826;4.380;2024-02-26T02:39:20;6.60;99.90
10788;DHT22;5446;50.826;4.380;2024-02-26T02:41:46;6.60;99.90
10788;DHT22;5446;50.826;4.380;2024-02-26T02:44:12;6.60;99.90
10788;DHT22;5446;50.826;4.380;2024-02-26T02:46:38;6.60;99.90
10788;DHT22;5446;50.826;4.380;2024-02-26T02:49:08;6.60;99.90
10788;DHT22;5446;50.826;4.380;2024-02-26T02:51:33;6.50;99.90
10788;DHT22;5446;50.826;4.380;2024-02-26T02:53:59;6.60;99.90
10788;DHT22;5446;50.826;4.380;2024-02-26T02:56:25;6.70;99.90
10788;DHT22;5446;50.826;4.380;2024-02-26T02:58:50;6.60;99.90
10788;DHT22;5446;50.826;4.380;2024-02-26T03:01:16;6.60;99.90
10788;DHT22;5446;50.826;4.380;2024-02-26T03:03:42;6.50;99.90
10788;DHT22;5446;50.826;4.380;2024-02-26T03:06:07;6.50;99.90
10788;DHT22;5446;50.826;4.380;2024-02-26T03:08:33;6.50;99.90
10788;DHT22;5446;50.826;4.380;2024-02-26T03:11:03;6.50;99.90
10788;DHT22;5446;50.826;4.380;2024-02-26T03:13:29;6.50;99.90
10788;DHT22;5446;50.826;4.380;2024-02-26T03:15:55;6.60;99.90
10788;DHT22;5446;50.826;4.380;2024-02-26T03:18:20;6.60;99.90
10788;DHT22;5446;50.826;4.380;2024-02-26T03:20:47;6.50;99.90
10788;DHT22;5446;50.826;4.380;2024-02-26T03:23:12;6.50;99.90
10788;DHT22;5446;50.826;4.380;2024-02-26T03:25:42;6.60;99.90
10788;DHT22;5446;50.826;4.380;2024-02-26T03:28:08;6.50;99.90
10788;DHT22;5446;50.826;4.380;2024-02-26T03:30:34;6.50;99.90
10788;DHT22;5446;50.826;4.380;2024-02-26T03:33:00;6.50;99.90
10788;DHT22;5446;50.826;4.380;2024-02-26T03:35:25;6.40;99.90
10788;DHT22;5446;50.826;4.380;2024-02-26T03:37:51;6.40;99.90
10788;DHT22;5446;50.826;4.380;2024-02-26T03:40:17;6.40;99.90
10788;DHT22;5446;50.826;4.380;2024-02-26T03:42:45;6.40;99.90
10788;DHT22;5446;50.826;4.380;2024-02-26T03:45:11;6.60;99.90
10788;DHT22;5446;50.826;4.380;2024-02-26T03:47:38;6.50;99.90
10788;DHT22;5446;50.826;4.380;2024-02-26T03:50:06;6.40;99.90
10788;DHT22;5446;50.826;4.380;2024-02-26T03:52:32;6.40;99.90
10788;DHT22;5446;50.826;4.380;2024-02-26T03:54:58;6.40;99.90
10788;DHT22;5446;50.826;4.380;2024-02-26T03:57:24;6.30;99.90
10788;DHT22;5446;50.826;4.380;2024-02-26T03:59:49;6.30;99.90
10788;DHT22;5446;50.826;4.380;2024-02-26T04:02:16;6.30;99.90
10788;DHT22;5446;50.826;4.380;2024-02-26T04:04:41;6.40;99.90
10788;DHT22;5446;50.826;4.380;2024-02-26T04:07:07;6.30;99.90
10788;DHT22;5446;50.826;4.380;2024-02-26T04:09:33;6.30;99.90
10788;DHT22;5446;50.826;4.380;2024-02-26T04:11:59;6.30;99.90
10788;DHT22;5446;50.826;4.380;2024-02-26T04:14:25;6.30;99.90
10788;DHT22;5446;50.826;4.380;2024-02-26T04:16:51;6.30;99.90
10788;DHT22;5446;50.826;4.380;2024-02-26T04:19:19;6.30;99.90
10788;DHT22;5446;50.826;4.380;2024-02-26T04:21:45;6.30;99.90
10788;DHT22;5446;50.826;4.380;2024-02-26T04:24:11;6.30;99.90
10788;DHT22;5446;50.826;4.380;2024-02-26T04:26:37;6.30;99.90
10788;DHT22;5446;50.826;4.380;2024-02-26T04:29:03;6.20;99.90
10788;DHT22;5446;50.826;4.380;2024-02-26T04:31:28;6.20;99.90
10788;DHT22;5446;50.826;4.380;2024-02-26T04:33:55;6.20;99.90
10788;DHT22;5446;50.826;4.380;2024-02-26T04:36:21;6.20;99.90
10788;DHT22;5446;50.826;4.380;2024-02-26T04:38:47;6.20;99.90
10788;DHT22;5446;50.826;4.380;2024-02-26T04:41:13;6.20;99.90
10788;DHT22;5446;50.826;4.380;2024-02-26T04:43:39;6.20;99.90
10788;DHT22;5446;50.826;4.380;2024-02-26T04:46:10;6.20;99.90
10788;DHT22;5446;50.826;4.380;2024-02-26T04:48:36;6.20;99.90
10788;DHT22;5446;50.826;4.380;2024-02-26T04:51:02;6.20;99.90
10788;DHT22;5446;50.826;4.380;2024-02-26T04:53:29;6.20;99.90
10788;DHT22;5446;50.826;4.380;2024-02-26T04:55:54;6.20;99.90
10788;DHT22;5446;50.826;4.380;2024-02-26T04:58:20;6.20;99.90
10788;DHT22;5446;50.826;4.380;2024-02-26T05:00:46;6.20;99.90
10788;DHT22;5446;50.826;4.380;2024-02-26T05:03:11;6.10;99.90
10788;DHT22;5446;50.826;4.380;2024-02-26T05:05:42;6.10;99.90
10788;DHT22;5446;50.826;4.380;2024-02-26T05:08:08;6.10;99.90
10788;DHT22;5446;50.826;4.380;2024-02-26T05:10:34;6.10;99.90
10788;DHT22;5446;50.826;4.380;2024-02-26T05:13:04;6.10;99.90
10788;DHT22;5446;50.826;4.380;2024-02-26T05:15:30;6.10;99.90
10788;DHT22;5446;50.826;4.380;2024-02-26T05:17:56;6.10;99.90
10788;DHT22;5446;50.826;4.380;2024-02-26T05:20:22;6.10;99.90
10788;DHT22;5446;50.826;4.380;2024-02-26T05:22:47;6.20;99.90
10788;DHT22;5446;50.826;4.380;2024-02-26T05:25:16;6.10;99.90
10788;DHT22;5446;50.826;4.380;2024-02-26T05:27:43;6.20;99.90
10788;DHT22;5446;50.826;4.380;2024-02-26T05:30:10;6.10;99.90
10788;DHT22;5446;50.826;4.380;2024-02-26T05:32:36;6.20;99.90
10788;DHT22;5446;50.826;4.380;2024-02-26T05:35:02;6.10;99.90
10788;DHT22;5446;50.826;4.380;2024-02-26T05:37:29;6.10;99.90
10788;DHT22;5446;50.826;4.380;2024-02-26T05:39:55;6.10;99.90
10788;DHT22;5446;50.826;4.380;2024-02-26T05:42:21;6.00;99.90
10788;DHT22;5446;50.826;4.380;2024-02-26T05:44:47;6.10;99.90
10788;DHT22;5446;50.826;4.380;2024-02-26T05:47:12;6.10;99.90
10788;DHT22;5446;50.826;4.380;2024-02-26T05:49:39;6.00;99.90
10788;DHT22;5446;50.826;4.380;2024-02-26T05:52:05;6.00;99.90
10788;DHT22;5446;50.826;4.380;2024-02-26T05:54:31;6.00;99.90
10788;DHT22;5446;50.826;4.380;2024-02-26T05:56:57;6.10;99.90
10788;DHT22;5446;50.826;4.380;2024-02-26T05:59:23;6.00;99.90
10788;DHT22;5446;50.826;4.380;2024-02-26T06:01:49;6.00;99.90
10788;DHT22;5446;50.826;4.380;2024-02-26T06:04:15;6.10;99.90
10788;DHT22;5446;50.826;4.380;2024-02-26T06:06:44;6.00;99.90
10788;DHT22;5446;50.826;4.380;2024-02-26T06:09:09;6.00;99.90
10788;DHT22;5446;50.826;4.380;2024-02-26T06:11:36;6.00;99.90
10788;DHT22;5446;50.826;4.380;2024-02-26T06:14:02;6.10;99.90
10788;DHT22;5446;50.826;4.380;2024-02-26T06:16:28;6.10;99.90
10788;DHT22;5446;50.826;4.380;2024-02-26T06:18:54;6.00;99.90
10788;DHT22;5446;50.826;4.380;2024-02-26T06:21:20;6.00;99.90
10788;DHT22;5446;50.826;4.380;2024-02-26T06:23:45;6.00;99.90
10788;DHT22;5446;50.826;4.380;2024-02-26T06:26:11;6.00;99.90
10788;DHT22;5446;50.826;4.380;2024-02-26T06:28:37;6.00;99.90
10788;DHT22;5446;50.826;4.380;2024-02-26T06:31:06;6.00;99.90
10788;DHT22;5446;50.826;4.380;2024-02-26T06:33:32;6.00;99.90
10788;DHT22;5446;50.826;4.380;2024-02-26T06:35:58;6.00;99.90
10788;DHT22;5446;50.826;4.380;2024-02-26T06:38:24;6.00;99.90
10788;DHT22;5446;50.826;4.380;2024-02-26T06:40:49;6.00;99.90
10788;DHT22;5446;50.826;4.380;2024-02-26T06:43:15;6.00;99.90
10788;DHT22;5446;50.826;4.380;2024-02-26T06:45:41;6.00;99.90
10788;DHT22;5446;50.826;4.380;2024-02-26T06:48:07;6.00;99.90
10788;DHT22;5446;50.826;4.380;2024-02-26T06:50:32;6.00;99.90
10788;DHT22;5446;50.826;4.380;2024-02-26T06:52:58;6.00;99.90
10788;DHT22;5446;50.826;4.380;2024-02-26T06:55:24;6.00;99.90
10788;DHT22;5446;50.826;4.380;2024-02-26T06:57:49;6.00;99.90
10788;DHT22;5446;50.826;4.380;2024-02-26T07:00:15;6.00;99.90
10788;DHT22;5446;50.826;4.380;2024-02-26T07:02:42;5.90;99.90
10788;DHT22;5446;50.826;4.380;2024-02-26T07:05:08;5.90;99.90
10788;DHT22;5446;50.826;4.380;2024-02-26T07:07:34;5.90;99.90
10788;DHT22;5446;50.826;4.380;2024-02-26T07:10:00;6.00;99.90
10788;DHT22;5446;50.826;4.380;2024-02-26T07:12:29;5.90;99.90
10788;DHT22;5446;50.826;4.380;2024-02-26T07:14:55;5.90;99.90
10788;DHT22;5446;50.826;4.380;2024-02-26T07:17:21;5.90;99.90
10788;DHT22;5446;50.826;4.380;2024-02-26T07:19:47;5.90;99.90
10788;DHT22;5446;50.826;4.380;2024-02-26T07:22:12;5.90;99.90
10788;DHT22;5446;50.826;4.380;2024-02-26T07:24:39;5.90;99.90
10788;DHT22;5446;50.826;4.380;2024-02-26T07:27:05;5.90;99.90
10788;DHT22;5446;50.826;4.380;2024-02-26T07:29:30;5.90;99.90
10788;DHT22;5446;50.826;4.380;2024-02-26T07:31:56;5.90;99.90
10788;DHT22;5446;50.826;4.380;2024-02-26T07:34:22;5.90;99.90
10788;DHT22;5446;50.826;4.380;2024-02-26T07:36:53;5.90;99.90
10788;DHT22;5446;50.826;4.380;2024-02-26T07:39:19;5.90;99.90
10788;DHT22;5446;50.826;4.380;2024-02-26T07:41:45;6.00;99.90
10788;DHT22;5446;50.826;4.380;2024-02-26T07:44:13;6.00;99.90
10788;DHT22;5446;50.826;4.380;2024-02-26T07:46:39;5.90;99.90
10788;DHT22;5446;50.826;4.380;2024-02-26T07:49:05;5.90;99.90
10788;DHT22;5446;50.826;4.380;2024-02-26T07:51:30;5.90;99.90
10788;DHT22;5446;50.826;4.380;2024-02-26T07:53:56;5.90;99.90
10788;DHT22;5446;50.826;4.380;2024-02-26T07:56:22;5.90;99.90
10788;DHT22;5446;50.826;4.380;2024-02-26T07:58:48;5.90;99.90
10788;DHT22;5446;50.826;4.380;2024-02-26T08:01:14;5.90;99.90
10788;DHT22;5446;50.826;4.380;2024-02-26T08:03:40;5.80;99.90
10788;DHT22;5446;50.826;4.380;2024-02-26T08:06:07;5.90;99.90
10788;DHT22;5446;50.826;4.380;2024-02-26T08:08:33;5.80;99.90
10788;DHT22;5446;50.826;4.380;2024-02-26T08:10:59;5.90;99.90
10788;DHT22;5446;50.826;4.380;2024-02-26T08:13:24;5.90;99.90
10788;DHT22;5446;50.826;4.380;2024-02-26T08:15:52;5.90;99.90
10788;DHT22;5446;50.826;4.380;2024-02-26T08:18:18;5.80;99.90
10788;DHT22;5446;50.826;4.380;2024-02-26T08:20:44;5.90;99.90
10788;DHT22;5446;50.826;4.380;2024-02-26T08:23:10;5.80;99.90
10788;DHT22;5446;50.826;4.380;2024-02-26T08:25:36;5.90;99.90
10788;DHT22;5446;50.826;4.380;2024-02-26T08:28:02;5.90;99.90
10788;DHT22;5446;50.826;4.380;2024-02-26T08:30:28;5.90;99.90
10788;DHT22;5446;50.826;4.380;2024-02-26T08:32:54;5.80;99.90
10788;DHT22;5446;50.826;4.380;2024-02-26T08:35:19;5.80;99.90
10788;DHT22;5446;50.826;4.380;2024-02-26T08:37:46;5.80;99.90
10788;DHT22;5446;50.826;4.380;2024-02-26T08:40:12;5.80;99.90
10788;DHT22;5446;50.826;4.380;2024-02-26T08:42:38;5.80;99.90
10788;DHT22;5446;50.826;4.380;2024-02-26T08:45:04;5.80;99.90
10788;DHT22;5446;50.826;4.380;2024-02-26T08:47:29;5.80;99.90
10788;DHT22;5446;50.826;4.380;2024-02-26T08:49:55;5.90;99.90
10788;DHT22;5446;50.826;4.380;2024-02-26T08:52:21;5.90;99.90
10788;DHT22;5446;50.826;4.380;2024-02-26T08:54:50;5.80;99.90
10788;DHT22;5446;50.826;4.380;2024-02-26T08:57:15;5.80;99.90
10788;DHT22;5446;50.826;4.380;2024-02-26T08:59:41;5.80;99.90
10788;DHT22;5446;50.826;4.380;2024-02-26T09:02:08;5.80;99.90
10788;DHT22;5446;50.826;4.380;2024-02-26T09:04:35;5.90;99.90
10788;DHT22;5446;50.826;4.380;2024-02-26T09:07:01;5.80;99.90
10788;DHT22;5446;50.826;4.380;2024-02-26T09:09:27;5.90;99.90
10788;DHT22;5446;50.826;4.380;2024-02-26T09:11:53;5.90;99.90
10788;DHT22;5446;50.826;4.380;2024-02-26T09:14:21;5.90;99.90
10788;DHT22;5446;50.826;4.380;2024-02-26T09:16:46;5.80;99.90
10788;DHT22;5446;50.826;4.380;2024-02-26T09:19:14;5.90;99.90
10788;DHT22;5446;50.826;4.380;2024-02-26T09:21:44;5.90;99.90
10788;DHT22;5446;50.826;4.380;2024-02-26T09:24:10;5.90;99.90
10788;DHT22;5446;50.826;4.380;2024-02-26T09:26:37;5.90;99.90
10788;DHT22;5446;50.826;4.380;2024-02-26T09:29:02;5.90;99.90
10788;DHT22;5446;50.826;4.380;2024-02-26T09:31:29;5.90;99.90
10788;DHT22;5446;50.826;4.380;2024-02-26T09:33:55;6.00;99.90
10788;DHT22;5446;50.826;4.380;2024-02-26T09:36:21;5.90;99.90
10788;DHT22;5446;50.826;4.380;2024-02-26T09:38:47;5.90;99.90
10788;DHT22;5446;50.826;4.380;2024-02-26T09:41:14;5.90;99.90
10788;DHT22;5446;50.826;4.380;2024-02-26T09:43:44;5.90;99.90
10788;DHT22;5446;50.826;4.380;2024-02-26T09:46:11;5.90;99.90
10788;DHT22;5446;50.826;4.380;2024-02-26T09:48:37;5.90;99.90
10788;DHT22;5446;50.826;4.380;2024-02-26T09:51:04;5.90;99.90
10788;DHT22;5446;50.826;4.380;2024-02-26T09:53:32;5.90;99.90
10788;DHT22;5446;50.826;4.380;2024-02-26T09:55:58;5.90;99.90
10788;DHT22;5446;50.826;4.380;2024-02-26T09:58:25;5.90;99.90
10788;DHT22;5446;50.826;4.380;2024-02-26T10:00:58;6.00;99.90
10788;DHT22;5446;50.826;4.380;2024-02-26T10:03:32;5.90;99.90
10788;DHT22;5446;50.826;4.380;2024-02-26T10:06:00;5.80;99.90
10788;DHT22;5446;50.826;4.380;2024-02-26T10:08:28;5.80;99.90
10788;DHT22;5446;50.826;4.380;2024-02-26T10:10:55;5.90;99.90
10788;DHT22;5446;50.826;4.380;2024-02-26T10:13:21;5.90;99.90
10788;DHT22;5446;50.826;4.380;2024-02-26T10:15:48;6.00;99.90
10788;DHT22;5446;50.826;4.380;2024-02-26T10:18:15;5.90;99.90
10788;DHT22;5446;50.826;4.380;2024-02-26T10:20:40;6.00;99.90
10788;DHT22;5446;50.826;4.380;2024-02-26T10:23:06;5.90;99.90
10788;DHT22;5446;50.826;4.380;2024-02-26T10:25:32;5.80;99.90
10788;DHT22;5446;50.826;4.380;2024-02-26T10:28:01;5.90;99.90
10788;DHT22;5446;50.826;4.380;2024-02-26T10:30:30;5.90;99.90
10788;DHT22;5446;50.826;4.380;2024-02-26T10:32:56;5.90;99.90
10788;DHT22;5446;50.826;4.380;2024-02-26T10:35:23;5.80;99.90
10788;DHT22;5446;50.826;4.380;2024-02-26T10:37:49;5.80;99.90
10788;DHT22;5446;50.826;4.380;2024-02-26T10:40:16;5.80;99.90
10788;DHT22;5446;50.826;4.380;2024-02-26T10:42:42;5.90;99.90
10788;DHT22;5446;50.826;4.380;2024-02-26T10:45:09;5.80;99.90
10788;DHT22;5446;50.826;4.380;2024-02-26T10:47:36;5.90;99.90
10788;DHT22;5446;50.826;4.380;2024-02-26T10:50:03;5.90;99.90
10788;DHT22;5446;50.826;4.380;2024-02-26T10:52:32;5.90;99.90
10788;DHT22;5446;50.826;4.380;2024-02-26T10:55:01;5.80;99.90
10788;DHT22;5446;50.826;4.380;2024-02-26T10:57:39;5.80;99.90
10788;DHT22;5446;50.826;4.380;2024-02-26T11:00:06;5.80;99.90
10788;DHT22;5446;50.826;4.380;2024-02-26T11:02:33;5.90;99.90
10788;DHT22;5446;50.826;4.380;2024-02-26T11:05:03;5.90;99.90
10788;DHT22;5446;50.826;4.380;2024-02-26T11:07:34;5.90;99.90
10788;DHT22;5446;50.826;4.380;2024-02-26T11:10:00;5.90;99.90
10788;DHT22;5446;50.826;4.380;2024-02-26T11:12:28;5.90;99.90
10788;DHT22;5446;50.826;4.380;2024-02-26T11:14:55;5.90;99.90
10788;DHT22;5446;50.826;4.380;2024-02-26T11:17:27;5.90;99.90
10788;DHT22;5446;50.826;4.380;2024-02-26T11:19:57;5.90;99.90
10788;DHT22;5446;50.826;4.380;2024-02-26T11:22:26;5.80;99.90
10788;DHT22;5446;50.826;4.380;2024-02-26T11:24:56;5.80;99.90
10788;DHT22;5446;50.826;4.380;2024-02-26T11:27:45;5.80;99.90
10788;DHT22;5446;50.826;4.380;2024-02-26T11:30:13;5.70;99.90
10788;DHT22;5446;50.826;4.380;2024-02-26T11:32:39;5.70;99.90
10788;DHT22;5446;50.826;4.380;2024-02-26T11:35:05;5.70;99.90
10788;DHT22;5446;50.826;4.380;2024-02-26T11:37:33;5.70;99.90
10788;DHT22;5446;50.826;4.380;2024-02-26T11:39:59;5.60;99.90
10788;DHT22;5446;50.826;4.380;2024-02-26T11:42:26;5.60;99.90
10788;DHT22;5446;50.826;4.380;2024-02-26T11:44:52;5.60;99.90
10788;DHT22;5446;50.826;4.380;2024-02-26T11:47:19;5.60;99.90
10788;DHT22;5446;50.826;4.380;2024-02-26T11:49:45;5.60;99.90
10788;DHT22;5446;50.826;4.380;2024-02-26T11:52:12;5.70;99.90
10788;DHT22;5446;50.826;4.380;2024-02-26T11:54:52;5.60;99.90
10788;DHT22;5446;50.826;4.380;2024-02-26T12:00:13;5.60;99.90
10788;DHT22;5446;50.826;4.380;2024-02-26T12:05:21;5.70;99.90
10788;DHT22;5446;50.826;4.380;2024-02-26T12:07:53;5.70;99.90
10788;DHT22;5446;50.826;4.380;2024-02-26T12:10:27;5.60;99.90
10788;DHT22;5446;50.826;4.380;2024-02-26T12:13:02;5.60;99.90
10788;DHT22;5446;50.826;4.380;2024-02-26T12:15:36;5.60;99.90
10788;DHT22;5446;50.826;4.380;2024-02-26T12:18:03;5.60;99.90
10788;DHT22;5446;50.826;4.380;2024-02-26T12:20:30;5.70;99.90
10788;DHT22;5446;50.826;4.380;2024-02-26T12:22:56;5.70;99.90
10788;DHT22;5446;50.826;4.380;2024-02-26T12:25:24;5.80;99.90
10788;DHT22;5446;50.826;4.380;2024-02-26T12:27:52;5.70;99.90
10788;DHT22;5446;50.826;4.380;2024-02-26T12:30:17;5.80;99.90
10788;DHT22;5446;50.826;4.380;2024-02-26T12:32:45;5.80;99.90
10788;DHT22;5446;50.826;4.380;2024-02-26T12:35:12;5.80;99.90
10788;DHT22;5446;50.826;4.380;2024-02-26T12:37:38;5.90;99.90
10788;DHT22;5446;50.826;4.380;2024-02-26T12:40:06;5.90;99.90
10788;DHT22;5446;50.826;4.380;2024-02-26T12:42:37;5.90;99.90
10788;DHT22;5446;50.826;4.380;2024-02-26T12:45:10;5.90;99.90
10788;DHT22;5446;50.826;4.380;2024-02-26T12:47:41;5.80;99.90
10788;DHT22;5446;50.826;4.380;2024-02-26T12:50:08;5.80;99.90
10788;DHT22;5446;50.826;4.380;2024-02-26T12:52:41;6.00;99.90
10788;DHT22;5446;50.826;4.380;2024-02-26T12:55:07;6.00;99.90
10788;DHT22;5446;50.826;4.380;2024-02-26T12:57:37;6.00;99.90
10788;DHT22;5446;50.826;4.380;2024-02-26T13:00:05;6.00;99.90
10788;DHT22;5446;50.826;4.380;2024-02-26T13:02:32;5.90;99.90
10788;DHT22;5446;50.826;4.380;2024-02-26T13:04:59;5.90;99.90
10788;DHT22;5446;50.826;4.380;2024-02-26T13:07:27;6.00;99.90
10788;DHT22;5446;50.826;4.380;2024-02-26T13:09:53;6.00;99.90
10788;DHT22;5446;50.826;4.380;2024-02-26T13:12:19;6.00;99.90
10788;DHT22;5446;50.826;4.380;2024-02-26T13:14:44;5.90;99.90
10788;DHT22;5446;50.826;4.380;2024-02-26T13:17:10;5.90;99.90
10788;DHT22;5446;50.826;4.380;2024-02-26T13:19:36;5.80;99.90
10788;DHT22;5446;50.826;4.380;2024-02-26T13:22:06;5.80;99.90
10788;DHT22;5446;50.826;4.380;2024-02-26T13:24:35;5.70;99.90
10788;DHT22;5446;50.826;4.380;2024-02-26T13:27:02;5.70;99.90
10788;DHT22;5446;50.826;4.380;2024-02-26T13:29:30;5.70;99.90
10788;DHT22;5446;50.826;4.380;2024-02-26T13:31:59;5.60;99.90
10788;DHT22;5446;50.826;4.380;2024-02-26T13:34:26;5.70;99.90
10788;DHT22;5446;50.826;4.380;2024-02-26T13:36:55;5.60;99.90
10788;DHT22;5446;50.826;4.380;2024-02-26T13:39:26;5.70;99.90
10788;DHT22;5446;50.826;4.380;2024-02-26T13:41:52;5.70;99.90
10788;DHT22;5446;50.826;4.380;2024-02-26T13:44:21;5.60;99.90
10788;DHT22;5446;50.826;4.380;2024-02-26T13:46:49;5.70;99.90
10788;DHT22;5446;50.826;4.380;2024-02-26T13:49:15;5.60;99.90
10788;DHT22;5446;50.826;4.380;2024-02-26T13:51:41;5.60;99.90
10788;DHT22;5446;50.826;4.380;2024-02-26T13:54:07;5.70;99.90
10788;DHT22;5446;50.826;4.380;2024-02-26T13:56:34;5.70;99.90
10788;DHT22;5446;50.826;4.380;2024-02-26T13:59:00;5.70;99.90
10788;DHT22;5446;50.826;4.380;2024-02-26T14:01:26;5.70;99.90
10788;DHT22;5446;50.826;4.380;2024-02-26T14:03:52;5.70;99.90
10788;DHT22;5446;50.826;4.380;2024-02-26T14:06:20;5.70;99.90
10788;DHT22;5446;50.826;4.380;2024-02-26T14:08:46;5.70;99.90
10788;DHT22;5446;50.826;4.380;2024-02-26T14:11:12;5.70;99.90
10788;DHT22;5446;50.826;4.380;2024-02-26T14:13:37;5.70;99.90
10788;DHT22;5446;50.826;4.380;2024-02-26T14:16:03;5.70;99.90
10788;DHT22;5446;50.826;4.380;2024-02-26T14:18:29;5.80;99.90
10788;DHT22;5446;50.826;4.380;2024-02-26T14:20:55;5.70;99.90
10788;DHT22;5446;50.826;4.380;2024-02-26T14:23:20;5.70;99.90
10788;DHT22;5446;50.826;4.380;2024-02-26T14:25:46;5.70;99.90
10788;DHT22;5446;50.826;4.380;2024-02-26T14:28:11;5.80;99.90
10788;DHT22;5446;50.826;4.380;2024-02-26T14:30:37;5.80;99.90
10788;DHT22;5446;50.826;4.380;2024-02-26T14:33:03;5.70;99.90
10788;DHT22;5446;50.826;4.380;2024-02-26T14:35:29;5.70;99.90
10788;DHT22;5446;50.826;4.380;2024-02-26T14:37:54;5.80;99.90
10788;DHT22;5446;50.826;4.380;2024-02-26T14:40:20;5.80;99.90
10788;DHT22;5446;50.826;4.380;2024-02-26T14:42:46;5.80;99.90
10788;DHT22;5446;50.826;4.380;2024-02-26T14:45:12;5.80;99.90
10788;DHT22;5446;50.826;4.380;2024-02-26T14:47:38;5.80;99.90
10788;DHT22;5446;50.826;4.380;2024-02-26T14:50:04;5.90;99.90
10788;DHT22;5446;50.826;4.380;2024-02-26T14:52:30;5.90;99.90
10788;DHT22;5446;50.826;4.380;2024-02-26T14:54:56;5.90;99.90
10788;DHT22;5446;50.826;4.380;2024-02-26T14:57:24;5.90;99.90
10788;DHT22;5446;50.826;4.380;2024-02-26T14:59:50;5.80;99.90
10788;DHT22;5446;50.826;4.380;2024-02-26T15:02:16;5.80;99.90
10788;DHT22;5446;50.826;4.380;2024-02-26T15:04:43;5.80;99.90
10788;DHT22;5446;50.826;4.380;2024-02-26T15:07:09;5.90;99.90
10788;DHT22;5446;50.826;4.380;2024-02-26T15:09:37;5.90;99.90
10788;DHT22;5446;50.826;4.380;2024-02-26T15:12:03;5.90;99.90
10788;DHT22;5446;50.826;4.380;2024-02-26T15:14:32;5.80;99.90
10788;DHT22;5446;50.826;4.380;2024-02-26T15:16:57;5.90;99.90
10788;DHT22;5446;50.826;4.380;2024-02-26T15:19:23;5.90;99.90
10788;DHT22;5446;50.826;4.380;2024-02-26T15:21:49;5.90;99.90
10788;DHT22;5446;50.826;4.380;2024-02-26T15:24:15;5.90;99.90
10788;DHT22;5446;50.826;4.380;2024-02-26T15:26:45;5.90;99.90
10788;DHT22;5446;50.826;4.380;2024-02-26T15:29:11;5.80;99.90
10788;DHT22;5446;50.826;4.380;2024-02-26T15:31:37;5.80;99.90
10788;DHT22;5446;50.826;4.380;2024-02-26T15:34:03;5.80;99.90
10788;DHT22;5446;50.826;4.380;2024-02-26T15:36:29;5.80;99.90
10788;DHT22;5446;50.826;4.380;2024-02-26T15:38:55;5.80;99.90
10788;DHT22;5446;50.826;4.380;2024-02-26T15:41:22;5.80;99.90
10788;DHT22;5446;50.826;4.380;2024-02-26T15:43:48;5.80;99.90
10788;DHT22;5446;50.826;4.380;2024-02-26T15:46:14;5.80;99.90
10788;DHT22;5446;50.826;4.380;2024-02-26T15:48:39;5.80;99.90
10788;DHT22;5446;50.826;4.380;2024-02-26T15:51:05;5.80;99.90
10788;DHT22;5446;50.826;4.380;2024-02-26T15:53:31;5.80;99.90
10788;DHT22;5446;50.826;4.380;2024-02-26T15:55:56;5.70;99.90
10788;DHT22;5446;50.826;4.380;2024-02-26T15:58:22;5.80;99.90
10788;DHT22;5446;50.826;4.380;2024-02-26T16:00:49;5.80;99.90
10788;DHT22;5446;50.826;4.380;2024-02-26T16:03:16;5.80;99.90